PORT of AGIOS KONSTANTINOS

Land: Greece Land: Greece (GR)
Latitude / Longitude: 38.758095° / 22.866425° Toon op kaart Toon op kaart
Lokale Tijd:  UTC +3
UN/LOCODE: GRAKO

Recente Aankomst- en Vertrektijden


Scheepsnaam
Aankomst (UTC)
Aankomst (LT)
Vertrek (UTC)
Vertrek (LT)
Vessel Type: HogeSnelheidsSchip  FLYING DOLPHIN ERATO 2014-09-21 15:05:00 2014-09-21 18:05:00 2014-09-21 15:52:00 2014-09-21 18:52:00
Vessel Type: HogeSnelheidsSchip  FLYING DOLPHIN ERATO 2014-09-19 16:51:00 2014-09-19 19:51:00 2014-09-19 17:28:00 2014-09-19 20:28:00
Vessel Type: HogeSnelheidsSchip  FLYING DOLPHIN ERATO 2014-09-12 16:05:00 2014-09-12 19:05:00 2014-09-12 16:42:00 2014-09-12 19:42:00
Vessel Type: Passagiersboot  OSIOS DAVID 2014-09-12 16:05:00 2014-09-12 19:05:00 2014-09-12 16:38:00 2014-09-12 19:38:00
Vessel Type: Passagiersboot  OSIOS DAVID 2014-09-12 14:08:00 2014-09-12 17:08:00 2014-09-12 14:38:00 2014-09-12 17:38:00
Vessel Type: Passagiersboot  OSIOS DAVID 2014-09-12 08:08:00 2014-09-12 11:08:00 2014-09-12 08:37:00 2014-09-12 11:37:00
Vessel Type: Passagiersboot  OSIOS DAVID 2014-09-12 06:06:00 2014-09-12 09:06:00 2014-09-12 06:37:00 2014-09-12 09:37:00
Vessel Type: Passagiersboot  OSIOS DAVID 2014-09-11 16:06:00 2014-09-11 19:06:00 2014-09-11 16:37:00 2014-09-11 19:37:00
Vessel Type: Passagiersboot  OSIOS DAVID 2014-09-11 12:07:00 2014-09-11 15:07:00 2014-09-11 12:39:00 2014-09-11 15:39:00
Vessel Type: Passagiersboot  OSIOS DAVID 2014-09-11 02:17:00 2014-09-11 05:17:00 2014-09-11 02:32:00 2014-09-11 05:32:00

Verwachte aankomsten


Scheepsnaam
Scheduled Arrival (UTC)
Geplande Aankomst (lokale tijd)
Geschatte Aankomsttijd (UTC)
Geschatte Aankomsttijd (Lokaal)
Geen gegevens gevonden

Wind Forecast


    
Tijd (UTC)
Snelheid
Direction
Temperature
2014-09-23 12:00:00 11 knots 311° 26°C
2014-09-23 15:00:00 16 knots 52° 21°C
2014-09-23 18:00:00 12 knots 43° 20°C
2014-09-23 21:00:00 15 knots 25° 20°C
2014-09-24 00:00:00 17 knots 17° 19°C
2014-09-24 03:00:00 17 knots 18°C
2014-09-24 06:00:00 16 knots 17°C
2014-09-24 09:00:00 11 knots 23° 17°C
2014-09-24 12:00:00 6 knots 64° 18°C
2014-09-24 15:00:00 4 knots 86° 19°C
2014-09-24 18:00:00 3 knots 152° 19°C
2014-09-24 21:00:00 2 knots 189° 20°C
2014-09-25 00:00:00 5 knots 19° 19°C
2014-09-25 03:00:00 8 knots 348° 19°C
2014-09-25 06:00:00 6 knots 349° 19°C
2014-09-25 09:00:00 3 knots 100° 19°C
2014-09-25 12:00:00 4 knots 92° 20°C